sensor_id;sensor_type;location;lat;lon;timestamp;P1;durP1;ratioP1;P2;durP2;ratioP2
1054;SDS011;516;51.482;7.120;2023-07-20T00:04:21;8.43;;;7.80;;
1054;SDS011;516;51.482;7.120;2023-07-20T00:10:09;9.00;;;8.13;;
1054;SDS011;516;51.482;7.120;2023-07-20T00:15:57;9.03;;;8.23;;
1054;SDS011;516;51.482;7.120;2023-07-20T00:21:45;9.70;;;8.67;;
1054;SDS011;516;51.482;7.120;2023-07-20T00:27:32;11.03;;;9.20;;
1054;SDS011;516;51.482;7.120;2023-07-20T00:33:37;9.90;;;9.07;;
1054;SDS011;516;51.482;7.120;2023-07-20T00:39:24;9.07;;;8.37;;
1054;SDS011;516;51.482;7.120;2023-07-20T00:45:11;10.20;;;9.40;;
1054;SDS011;516;51.482;7.120;2023-07-20T00:50:59;9.00;;;8.20;;
1054;SDS011;516;51.482;7.120;2023-07-20T00:56:47;9.37;;;8.47;;
1054;SDS011;516;51.482;7.120;2023-07-20T01:02:36;10.50;;;9.47;;
1054;SDS011;516;51.482;7.120;2023-07-20T01:08:26;12.83;;;8.97;;
1054;SDS011;516;51.482;7.120;2023-07-20T01:14:16;9.00;;;8.30;;
1054;SDS011;516;51.482;7.120;2023-07-20T01:20:08;10.07;;;8.60;;
1054;SDS011;516;51.482;7.120;2023-07-20T01:35:58;9.60;;;8.70;;
1054;SDS011;516;51.482;7.120;2023-07-20T01:42:24;10.07;;;8.67;;
1054;SDS011;516;51.482;7.120;2023-07-20T01:48:13;9.77;;;8.63;;
1054;SDS011;516;51.482;7.120;2023-07-20T01:54:01;16.23;;;8.73;;
1054;SDS011;516;51.482;7.120;2023-07-20T01:59:48;10.33;;;8.90;;
1054;SDS011;516;51.482;7.120;2023-07-20T02:05:36;9.70;;;8.80;;
1054;SDS011;516;51.482;7.120;2023-07-20T02:11:23;10.60;;;8.90;;
1054;SDS011;516;51.482;7.120;2023-07-20T02:17:11;9.70;;;7.90;;
1054;SDS011;516;51.482;7.120;2023-07-20T02:22:59;16.33;;;8.70;;
1054;SDS011;516;51.482;7.120;2023-07-20T02:28:47;13.70;;;8.20;;
1054;SDS011;516;51.482;7.120;2023-07-20T02:37:57;9.20;;;8.30;;
1054;SDS011;516;51.482;7.120;2023-07-20T02:43:44;12.43;;;8.63;;
1054;SDS011;516;51.482;7.120;2023-07-20T02:49:32;12.70;;;10.23;;
1054;SDS011;516;51.482;7.120;2023-07-20T02:55:20;13.30;;;8.63;;
1054;SDS011;516;51.482;7.120;2023-07-20T03:01:08;15.13;;;9.37;;
1054;SDS011;516;51.482;7.120;2023-07-20T03:06:56;11.77;;;9.10;;
1054;SDS011;516;51.482;7.120;2023-07-20T03:12:43;13.57;;;9.40;;
1054;SDS011;516;51.482;7.120;2023-07-20T03:18:31;14.90;;;11.10;;
1054;SDS011;516;51.482;7.120;2023-07-20T03:24:19;13.13;;;9.50;;
1054;SDS011;516;51.482;7.120;2023-07-20T03:30:06;12.60;;;8.80;;
1054;SDS011;516;51.482;7.120;2023-07-20T03:35:51;9.87;;;8.00;;
1054;SDS011;516;51.482;7.120;2023-07-20T03:41:39;12.90;;;8.50;;
1054;SDS011;516;51.482;7.120;2023-07-20T03:47:26;9.87;;;8.87;;
1054;SDS011;516;51.482;7.120;2023-07-20T03:53:15;15.30;;;11.20;;
1054;SDS011;516;51.482;7.120;2023-07-20T03:59:03;19.10;;;13.00;;
1054;SDS011;516;51.482;7.120;2023-07-20T04:04:51;16.90;;;13.70;;
1054;SDS011;516;51.482;7.120;2023-07-20T04:10:39;17.90;;;14.20;;
1054;SDS011;516;51.482;7.120;2023-07-20T04:16:29;24.10;;;18.40;;
1054;SDS011;516;51.482;7.120;2023-07-20T04:22:17;25.03;;;18.43;;
1054;SDS011;516;51.482;7.120;2023-07-20T04:28:08;28.40;;;21.23;;
1054;SDS011;516;51.482;7.120;2023-07-20T04:43:43;24.87;;;21.47;;
1054;SDS011;516;51.482;7.120;2023-07-20T04:49:32;24.67;;;21.07;;
1054;SDS011;516;51.482;7.120;2023-07-20T04:55:19;27.13;;;22.63;;
1054;SDS011;516;51.482;7.120;2023-07-20T05:01:08;23.27;;;20.77;;
1054;SDS011;516;51.482;7.120;2023-07-20T05:06:55;22.57;;;20.13;;
1054;SDS011;516;51.482;7.120;2023-07-20T05:12:43;29.00;;;17.50;;
1054;SDS011;516;51.482;7.120;2023-07-20T05:18:31;21.33;;;18.40;;
1054;SDS011;516;51.482;7.120;2023-07-20T05:24:20;23.33;;;19.23;;
1054;SDS011;516;51.482;7.120;2023-07-20T05:30:08;19.27;;;17.37;;
1054;SDS011;516;51.482;7.120;2023-07-20T05:35:53;19.37;;;17.30;;
1054;SDS011;516;51.482;7.120;2023-07-20T05:41:40;20.80;;;17.53;;
1054;SDS011;516;51.482;7.120;2023-07-20T05:47:28;17.00;;;15.30;;
1054;SDS011;516;51.482;7.120;2023-07-20T05:53:16;17.73;;;15.50;;
1054;SDS011;516;51.482;7.120;2023-07-20T05:59:03;15.80;;;14.17;;
1054;SDS011;516;51.482;7.120;2023-07-20T06:04:51;15.50;;;14.00;;
1054;SDS011;516;51.482;7.120;2023-07-20T06:10:39;18.87;;;16.97;;
1054;SDS011;516;51.482;7.120;2023-07-20T06:16:27;17.07;;;15.13;;
1054;SDS011;516;51.482;7.120;2023-07-20T06:22:15;18.40;;;16.80;;
1054;SDS011;516;51.482;7.120;2023-07-20T06:28:02;14.40;;;13.20;;
1054;SDS011;516;51.482;7.120;2023-07-20T06:33:52;13.63;;;12.47;;
1054;SDS011;516;51.482;7.120;2023-07-20T06:39:40;12.87;;;11.97;;
1054;SDS011;516;51.482;7.120;2023-07-20T06:45:28;11.80;;;11.00;;
1054;SDS011;516;51.482;7.120;2023-07-20T06:51:05;9.87;;;9.07;;
1054;SDS011;516;51.482;7.120;2023-07-20T06:56:50;8.83;;;8.33;;
1054;SDS011;516;51.482;7.120;2023-07-20T07:02:38;10.77;;;10.07;;
1054;SDS011;516;51.482;7.120;2023-07-20T07:08:26;10.47;;;9.57;;
1054;SDS011;516;51.482;7.120;2023-07-20T07:14:14;11.40;;;10.50;;
1054;SDS011;516;51.482;7.120;2023-07-20T07:20:02;13.40;;;12.30;;
1054;SDS011;516;51.482;7.120;2023-07-20T07:25:51;12.20;;;11.10;;
1054;SDS011;516;51.482;7.120;2023-07-20T07:31:38;15.93;;;14.43;;
1054;SDS011;516;51.482;7.120;2023-07-20T07:37:26;14.93;;;13.53;;
1054;SDS011;516;51.482;7.120;2023-07-20T07:43:15;16.17;;;14.33;;
1054;SDS011;516;51.482;7.120;2023-07-20T07:49:02;19.37;;;17.47;;
1054;SDS011;516;51.482;7.120;2023-07-20T08:04:41;21.53;;;19.53;;
1054;SDS011;516;51.482;7.120;2023-07-20T08:10:29;19.30;;;17.60;;
1054;SDS011;516;51.482;7.120;2023-07-20T08:16:17;21.77;;;19.67;;
1054;SDS011;516;51.482;7.120;2023-07-20T08:22:05;21.10;;;19.30;;
1054;SDS011;516;51.482;7.120;2023-07-20T08:27:53;21.43;;;19.47;;
1054;SDS011;516;51.482;7.120;2023-07-20T08:33:41;25.80;;;23.20;;
1054;SDS011;516;51.482;7.120;2023-07-20T08:39:29;21.20;;;19.50;;
1054;SDS011;516;51.482;7.120;2023-07-20T08:45:17;24.30;;;22.53;;
1054;SDS011;516;51.482;7.120;2023-07-20T08:51:05;18.00;;;16.90;;
1054;SDS011;516;51.482;7.120;2023-07-20T08:56:49;12.40;;;11.80;;
1054;SDS011;516;51.482;7.120;2023-07-20T09:02:38;11.60;;;11.10;;
1054;SDS011;516;51.482;7.120;2023-07-20T09:08:29;13.50;;;12.80;;
1054;SDS011;516;51.482;7.120;2023-07-20T09:14:17;9.40;;;8.90;;
1054;SDS011;516;51.482;7.120;2023-07-20T09:20:05;10.33;;;9.93;;
1054;SDS011;516;51.482;7.120;2023-07-20T09:25:58;11.30;;;10.80;;
1054;SDS011;516;51.482;7.120;2023-07-20T09:31:59;11.27;;;10.67;;
1054;SDS011;516;51.482;7.120;2023-07-20T09:37:57;11.17;;;10.57;;
1054;SDS011;516;51.482;7.120;2023-07-20T09:43:46;11.30;;;10.90;;
1054;SDS011;516;51.482;7.120;2023-07-20T09:49:40;10.30;;;9.90;;
1054;SDS011;516;51.482;7.120;2023-07-20T09:58:54;10.30;;;9.73;;
1054;SDS011;516;51.482;7.120;2023-07-20T10:04:42;11.50;;;10.70;;
1054;SDS011;516;51.482;7.120;2023-07-20T10:10:31;11.00;;;10.60;;
1054;SDS011;516;51.482;7.120;2023-07-20T10:16:31;11.13;;;10.73;;
1054;SDS011;516;51.482;7.120;2023-07-20T10:22:26;10.80;;;10.40;;
1054;SDS011;516;51.482;7.120;2023-07-20T10:28:16;11.07;;;10.67;;
1054;SDS011;516;51.482;7.120;2023-07-20T10:34:04;11.40;;;10.87;;
1054;SDS011;516;51.482;7.120;2023-07-20T10:39:52;11.53;;;11.13;;
1054;SDS011;516;51.482;7.120;2023-07-20T10:45:51;11.30;;;10.80;;
1054;SDS011;516;51.482;7.120;2023-07-20T10:51:40;11.93;;;11.53;;
1054;SDS011;516;51.482;7.120;2023-07-20T11:01:27;11.60;;;11.20;;
1054;SDS011;516;51.482;7.120;2023-07-20T11:07:17;10.10;;;9.80;;
1054;SDS011;516;51.482;7.120;2023-07-20T11:17:11;12.30;;;11.80;;
1054;SDS011;516;51.482;7.120;2023-07-20T11:23:01;12.10;;;11.53;;
1054;SDS011;516;51.482;7.120;2023-07-20T11:28:49;12.00;;;11.60;;
1054;SDS011;516;51.482;7.120;2023-07-20T11:34:38;11.80;;;11.40;;
1054;SDS011;516;51.482;7.120;2023-07-20T11:40:25;12.77;;;12.23;;
1054;SDS011;516;51.482;7.120;2023-07-20T11:46:12;13.07;;;12.57;;
1054;SDS011;516;51.482;7.120;2023-07-20T11:51:59;12.10;;;11.70;;
1054;SDS011;516;51.482;7.120;2023-07-20T12:01:09;11.33;;;10.83;;
1054;SDS011;516;51.482;7.120;2023-07-20T12:06:58;12.30;;;11.80;;
1054;SDS011;516;51.482;7.120;2023-07-20T12:12:46;13.63;;;13.13;;
1054;SDS011;516;51.482;7.120;2023-07-20T12:18:34;11.97;;;11.53;;
1054;SDS011;516;51.482;7.120;2023-07-20T12:24:23;13.00;;;12.50;;
1054;SDS011;516;51.482;7.120;2023-07-20T12:30:11;12.20;;;11.80;;
1054;SDS011;516;51.482;7.120;2023-07-20T12:36:00;14.00;;;13.40;;
1054;SDS011;516;51.482;7.120;2023-07-20T12:41:48;13.70;;;13.20;;
1054;SDS011;516;51.482;7.120;2023-07-20T12:47:17;12.50;;;12.00;;
1054;SDS011;516;51.482;7.120;2023-07-20T12:53:05;12.63;;;12.13;;
1054;SDS011;516;51.482;7.120;2023-07-20T12:58:53;12.57;;;12.10;;
1054;SDS011;516;51.482;7.120;2023-07-20T13:04:41;12.70;;;12.10;;
1054;SDS011;516;51.482;7.120;2023-07-20T13:10:29;13.67;;;13.17;;
1054;SDS011;516;51.482;7.120;2023-07-20T13:16:17;13.57;;;12.60;;
1054;SDS011;516;51.482;7.120;2023-07-20T13:22:04;14.00;;;13.40;;
1054;SDS011;516;51.482;7.120;2023-07-20T13:27:52;12.30;;;11.80;;
1054;SDS011;516;51.482;7.120;2023-07-20T13:33:40;12.37;;;11.87;;
1054;SDS011;516;51.482;7.120;2023-07-20T13:39:28;13.10;;;12.60;;
1054;SDS011;516;51.482;7.120;2023-07-20T13:45:16;13.80;;;12.50;;
1054;SDS011;516;51.482;7.120;2023-07-20T13:51:04;12.63;;;12.03;;
1054;SDS011;516;51.482;7.120;2023-07-20T14:06:58;12.00;;;11.50;;
1054;SDS011;516;51.482;7.120;2023-07-20T14:12:46;12.47;;;11.77;;
1054;SDS011;516;51.482;7.120;2023-07-20T14:18:33;11.70;;;11.20;;
1054;SDS011;516;51.482;7.120;2023-07-20T14:24:21;13.10;;;12.50;;
1054;SDS011;516;51.482;7.120;2023-07-20T14:30:12;13.00;;;12.50;;
1054;SDS011;516;51.482;7.120;2023-07-20T14:36:00;13.30;;;12.73;;
1054;SDS011;516;51.482;7.120;2023-07-20T14:41:49;14.30;;;13.60;;
1054;SDS011;516;51.482;7.120;2023-07-20T14:47:37;12.77;;;12.17;;
1054;SDS011;516;51.482;7.120;2023-07-20T14:53:25;11.73;;;11.23;;
1054;SDS011;516;51.482;7.120;2023-07-20T14:59:06;11.90;;;11.40;;
1054;SDS011;516;51.482;7.120;2023-07-20T15:04:53;11.40;;;11.00;;
1054;SDS011;516;51.482;7.120;2023-07-20T15:10:41;12.00;;;11.50;;
1054;SDS011;516;51.482;7.120;2023-07-20T15:16:30;11.80;;;11.23;;
1054;SDS011;516;51.482;7.120;2023-07-20T15:22:18;12.10;;;11.50;;
1054;SDS011;516;51.482;7.120;2023-07-20T15:28:05;13.07;;;12.40;;
1054;SDS011;516;51.482;7.120;2023-07-20T15:33:53;13.10;;;12.50;;
1054;SDS011;516;51.482;7.120;2023-07-20T15:39:41;13.20;;;12.60;;
1054;SDS011;516;51.482;7.120;2023-07-20T15:45:29;13.00;;;12.40;;
1054;SDS011;516;51.482;7.120;2023-07-20T15:51:17;12.77;;;12.07;;
1054;SDS011;516;51.482;7.120;2023-07-20T16:06:56;12.63;;;12.03;;
1054;SDS011;516;51.482;7.120;2023-07-20T16:12:44;12.10;;;11.40;;
1054;SDS011;516;51.482;7.120;2023-07-20T16:18:32;12.00;;;11.27;;
1054;SDS011;516;51.482;7.120;2023-07-20T16:24:20;13.17;;;12.37;;
1054;SDS011;516;51.482;7.120;2023-07-20T16:30:08;11.60;;;11.10;;
1054;SDS011;516;51.482;7.120;2023-07-20T16:35:55;12.37;;;11.87;;
1054;SDS011;516;51.482;7.120;2023-07-20T16:41:43;12.63;;;12.03;;
1054;SDS011;516;51.482;7.120;2023-07-20T16:47:31;12.90;;;12.30;;
1054;SDS011;516;51.482;7.120;2023-07-20T16:53:19;12.60;;;12.00;;
1054;SDS011;516;51.482;7.120;2023-07-20T16:59:06;13.30;;;12.50;;
1054;SDS011;516;51.482;7.120;2023-07-20T17:04:54;12.13;;;11.57;;
1054;SDS011;516;51.482;7.120;2023-07-20T17:10:41;11.93;;;11.47;;
1054;SDS011;516;51.482;7.120;2023-07-20T17:16:30;12.83;;;12.30;;
1054;SDS011;516;51.482;7.120;2023-07-20T17:22:18;13.43;;;12.37;;
1054;SDS011;516;51.482;7.120;2023-07-20T17:28:05;12.30;;;11.80;;
1054;SDS011;516;51.482;7.120;2023-07-20T17:33:53;12.53;;;12.03;;
1054;SDS011;516;51.482;7.120;2023-07-20T17:39:42;12.90;;;12.33;;
1054;SDS011;516;51.482;7.120;2023-07-20T17:45:29;12.47;;;11.97;;
1054;SDS011;516;51.482;7.120;2023-07-20T17:51:17;13.17;;;12.67;;
1054;SDS011;516;51.482;7.120;2023-07-20T18:06:56;12.90;;;12.30;;
1054;SDS011;516;51.482;7.120;2023-07-20T18:12:44;12.83;;;12.33;;
1054;SDS011;516;51.482;7.120;2023-07-20T18:18:33;11.50;;;11.00;;
1054;SDS011;516;51.482;7.120;2023-07-20T18:24:21;11.37;;;10.93;;
1054;SDS011;516;51.482;7.120;2023-07-20T18:30:08;12.53;;;11.93;;
1054;SDS011;516;51.482;7.120;2023-07-20T18:35:56;13.30;;;12.80;;
1054;SDS011;516;51.482;7.120;2023-07-20T18:41:44;13.30;;;12.80;;
1054;SDS011;516;51.482;7.120;2023-07-20T18:47:13;12.80;;;12.30;;
1054;SDS011;516;51.482;7.120;2023-07-20T18:53:01;13.47;;;12.87;;
1054;SDS011;516;51.482;7.120;2023-07-20T19:02:13;12.73;;;12.03;;
1054;SDS011;516;51.482;7.120;2023-07-20T19:08:00;11.70;;;11.27;;
1054;SDS011;516;51.482;7.120;2023-07-20T19:13:50;12.27;;;11.73;;
1054;SDS011;516;51.482;7.120;2023-07-20T19:19:38;12.03;;;11.63;;
1054;SDS011;516;51.482;7.120;2023-07-20T19:25:25;12.63;;;11.90;;
1054;SDS011;516;51.482;7.120;2023-07-20T19:31:14;11.63;;;11.20;;
1054;SDS011;516;51.482;7.120;2023-07-20T19:37:01;12.47;;;11.87;;
1054;SDS011;516;51.482;7.120;2023-07-20T19:42:50;13.00;;;12.40;;
1054;SDS011;516;51.482;7.120;2023-07-20T19:48:38;12.30;;;11.70;;
1054;SDS011;516;51.482;7.120;2023-07-20T19:54:26;12.77;;;12.27;;
1054;SDS011;516;51.482;7.120;2023-07-20T20:00:08;18.50;;;17.10;;
1054;SDS011;516;51.482;7.120;2023-07-20T20:05:59;43.63;;;39.07;;
1054;SDS011;516;51.482;7.120;2023-07-20T20:11:46;48.73;;;40.30;;
1054;SDS011;516;51.482;7.120;2023-07-20T20:17:34;38.27;;;34.30;;
1054;SDS011;516;51.482;7.120;2023-07-20T20:26:43;28.50;;;25.50;;
1054;SDS011;516;51.482;7.120;2023-07-20T20:32:31;30.97;;;27.77;;
1054;SDS011;516;51.482;7.120;2023-07-20T20:38:23;28.63;;;26.03;;
1054;SDS011;516;51.482;7.120;2023-07-20T20:54:08;25.83;;;23.33;;
1054;SDS011;516;51.482;7.120;2023-07-20T20:59:57;18.40;;;17.00;;
1054;SDS011;516;51.482;7.120;2023-07-20T21:05:45;14.70;;;13.80;;
1054;SDS011;516;51.482;7.120;2023-07-20T21:11:32;17.60;;;15.73;;
1054;SDS011;516;51.482;7.120;2023-07-20T21:17:20;10.57;;;9.87;;
1054;SDS011;516;51.482;7.120;2023-07-20T21:23:08;8.23;;;7.63;;
1054;SDS011;516;51.482;7.120;2023-07-20T21:28:55;8.80;;;5.80;;
1054;SDS011;516;51.482;7.120;2023-07-20T21:34:43;8.53;;;6.10;;
1054;SDS011;516;51.482;7.120;2023-07-20T21:40:31;8.23;;;7.37;;
1054;SDS011;516;51.482;7.120;2023-07-20T21:46:19;7.40;;;6.80;;
1054;SDS011;516;51.482;7.120;2023-07-20T21:52:08;7.93;;;7.30;;
1054;SDS011;516;51.482;7.120;2023-07-20T22:07:58;11.83;;;10.83;;
1054;SDS011;516;51.482;7.120;2023-07-20T22:13:49;10.37;;;9.37;;
1054;SDS011;516;51.482;7.120;2023-07-20T22:19:37;9.53;;;8.77;;
1054;SDS011;516;51.482;7.120;2023-07-20T22:25:25;9.60;;;8.80;;
1054;SDS011;516;51.482;7.120;2023-07-20T22:31:13;9.97;;;9.17;;
1054;SDS011;516;51.482;7.120;2023-07-20T22:37:02;11.93;;;10.73;;
1054;SDS011;516;51.482;7.120;2023-07-20T22:42:51;12.30;;;11.10;;
1054;SDS011;516;51.482;7.120;2023-07-20T22:48:39;12.73;;;11.73;;
1054;SDS011;516;51.482;7.120;2023-07-20T22:54:27;12.33;;;11.33;;
1054;SDS011;516;51.482;7.120;2023-07-20T23:00:08;13.10;;;12.10;;
1054;SDS011;516;51.482;7.120;2023-07-20T23:05:56;15.23;;;13.83;;
1054;SDS011;516;51.482;7.120;2023-07-20T23:11:44;13.17;;;12.17;;
1054;SDS011;516;51.482;7.120;2023-07-20T23:17:32;14.50;;;13.30;;
1054;SDS011;516;51.482;7.120;2023-07-20T23:23:20;17.47;;;15.80;;
1054;SDS011;516;51.482;7.120;2023-07-20T23:29:08;18.20;;;14.03;;
1054;SDS011;516;51.482;7.120;2023-07-20T23:34:56;17.43;;;15.80;;
1054;SDS011;516;51.482;7.120;2023-07-20T23:40:43;16.63;;;15.20;;
1054;SDS011;516;51.482;7.120;2023-07-20T23:46:31;16.57;;;15.03;;
1054;SDS011;516;51.482;7.120;2023-07-20T23:52:20;15.47;;;13.97;;
